• Join FlightAware (Why Join?)
  • Login
  • US Flag 
04:23AM EDT


 

Airport Tracker/Info


-or-


 

Live Flight TrackerFlight Track Log ✈ N921FR ✈ 05-May-2012 ✈ KSDF - KDEN

Flight Track Log - Related Links

Times and Time Zones

All times are in EDT time to prevent confusion due to time zone crossing. See the N921FR flight status page for this flight to view local times or setup timezone preferences in your user account.

Time Position Orientation Groundspeed Altitude Reporting Facility
EDT Latitude Longitude Course Direction KTS MPH feet Rate Location/Type
04:56PM 38.2092 -85.7392 344° North 166 191 1,900  Level FAA TRACON SMA TRACON (SMA)
04:56PM 38.2394 -85.7500 323° Northwest 186 214 2,800 1,560 Climbing FAA TRACON SMA TRACON (SMA)
04:57PM 38.2725 -85.7817 256° West 243 280 4,000 2,220 Climbing FAA TRACON SMA TRACON (SMA)
04:58PM 38.2603 -85.8433 236° Southwest 273 314 5,800 2,880 Climbing FAA TRACON SMA TRACON (SMA)
04:58PM 38.2294 -85.9006 234° Southwest 287 330 7,900 2,880 Climbing FAA TRACON SMA TRACON (SMA)
04:59PM 38.1997 -85.9517 232° Southwest 293 337 9,700 2,340 Climbing FAA TRACON SMA TRACON (SMA)
05:00PM 38.1631 -86.0108 232° Southwest 313 360 11,000 2,220 Climbing FAA TRACON SMA TRACON (SMA)
05:00PM 38.1228 -86.0756 233° Southwest 340 391 12,700 2,340 Climbing FAA TRACON SMA TRACON (SMA)
05:01PM 38.0644 -86.1722 259° West 349 402 15,100 2,280 Climbing FAA TRACON SMA TRACON (SMA)
05:02PM 38.0528 -86.2456 265° West 350 403 16,500 2,040 Climbing FAA TRACON SMA TRACON (SMA)
05:03PM 38.0464 -86.3331 265° West 361 415 17,800 1,920 Climbing FAA TRACON SMA TRACON (SMA)
05:03PM 38.0400 -86.4233 275° West 374 430 19,100 1,920 Climbing FAA TRACON SMA TRACON (SMA)
05:04PM 38.0458 -86.5158 275° West 381 438 20,500 1,800 Climbing FAA TRACON SMA TRACON (SMA)
05:05PM 38.0519 -86.6003 274° West 390 449 21,500 1,680 Climbing FAA TRACON SMA TRACON (SMA)
05:05PM 38.0578 -86.6975 275° West 400 460 22,700 1,560 Climbing FAA TRACON SMA TRACON (SMA)
05:06PM 38.0644 -86.7861 275° West 409 471 23,700 1,500 Climbing FAA TRACON SMA TRACON (SMA)
05:07PM 38.0714 -86.8881 275° West 421 484 24,700 1,440 Climbing FAA TRACON SMA TRACON (SMA)
05:07PM 38.0775 -86.9814 272° West 430 495 25,600 1,440 Climbing FAA TRACON SMA TRACON (SMA)
05:08PM 38.0806 -87.1297 276° West 433 498 27,200 1,380 Climbing Indianapolis Center
05:09PM 38.0925 -87.2833 274° West 443 510 28,500 1,200 Climbing Indianapolis Center
05:10PM 38.1014 -87.4581 274° West 448 516 29,700 1,140 Climbing Indianapolis Center
05:11PM 38.1106 -87.6194 273° West 453 521 30,800 1,200 Climbing Indianapolis Center
05:13PM 38.1206 -87.8697 274° West 472 543 32,900 1,320 Climbing Kansas City Center
05:14PM 38.1294 -88.0325 273° West 472 543 34,300 1,440 Climbing Kansas City Center
05:15PM 38.1367 -88.2036 274° West 467 537 35,800 1,200 Climbing Kansas City Center
05:16PM 38.1447 -88.3614 274° West 454 522 36,700 900 Climbing Kansas City Center
05:17PM 38.1528 -88.5167 274° West 454 522 37,600 600 Climbing Kansas City Center
05:18PM 38.1603 -88.6667 272° West 444 511 38,000 180 Climbing Kansas City Center
05:19PM 38.1653 -88.8167 273° West 438 504 38,000  Level Kansas City Center
05:20PM 38.1725 -88.9694 272° West 438 504 38,000  Level Kansas City Center
05:21PM 38.1772 -89.1169 274° West 438 504 38,000  Level Kansas City Center
05:22PM 38.1861 -89.2697 271° West 433 498 38,000  Level Kansas City Center
05:23PM 38.1886 -89.4228 273° West 436 502 38,000  Level Kansas City Center
05:24PM 38.1947 -89.5728 273° West 436 502 38,000  Level Kansas City Center
05:25PM 38.2011 -89.7231 272° West 441 507 38,000  Level Kansas City Center
05:26PM 38.2050 -89.8814 274° West 441 507 38,000  Level Kansas City Center
05:27PM 38.2131 -90.0317 273° West 441 507 38,000  Level Kansas City Center
05:28PM 38.2183 -90.1742 271° West 441 507 38,000  Level Kansas City Center
05:29PM 38.2203 -90.3458 272° West 441 507 38,000  Level Kansas City Center
05:30PM 38.2247 -90.4831 272° West 441 507 38,000  Level Kansas City Center
05:31PM 38.2286 -90.6572 272° West 441 507 38,000  Level Kansas City Center
05:32PM 38.2333 -90.8103 271° West 441 507 38,000  Level Kansas City Center
05:33PM 38.2361 -90.9661 273° West 441 507 38,000  Level Kansas City Center
05:34PM 38.2425 -91.1219 272° West 441 507 38,000  Level Kansas City Center
05:35PM 38.2469 -91.2778 273° West 436 502 38,000 -60 Level Kansas City Center
05:36PM 38.2522 -91.4017 270° West 436 502 37,900  Descending Kansas City Center
05:37PM 38.2522 -91.5683 273° West 436 502 38,000  Climbing Kansas City Center
05:38PM 38.2581 -91.7242 271° West 441 507 38,000  Level Kansas City Center
05:39PM 38.2600 -91.8986 273° West 447 514 38,000  Level Kansas City Center
05:40PM 38.2653 -92.0544 271° West 447 514 38,000  Level Kansas City Center
05:41PM 38.2664 -92.2078 271° West 442 509 38,000  Level Kansas City Center
05:42PM 38.2692 -92.3611 270° West 437 503 38,000 -60 Level Kansas City Center
05:43PM 38.2697 -92.5119 270° West 437 503 37,900 -60 Descending Kansas City Center
05:44PM 38.2700 -92.6600 271° West 437 503 37,900  Level Kansas City Center
05:45PM 38.2722 -92.8081 271° West 432 497 37,900  Level Kansas City Center
05:46PM 38.2742 -92.9561 270° West 427 491 38,000  Climbing Kansas City Center
05:47PM 38.2742 -93.1069 271° West 427 491 38,000  Level Kansas City Center
05:48PM 38.2758 -93.2603 270° West 427 491 38,000  Level Kansas City Center
05:49PM 38.2753 -93.4111 271° West 427 491 38,000  Level Kansas City Center
05:50PM 38.2764 -93.5669 270° West 433 498 38,000  Level Kansas City Center
05:51PM 38.2756 -93.7206 270° West 438 504 38,000  Level Kansas City Center
05:52PM 38.2764 -93.8686 269° West 438 504 38,000  Level Kansas City Center
05:53PM 38.2750 -94.0194 268° West 438 504 38,000  Level Kansas City Center
05:54PM 38.2714 -94.1675 268° West 438 504 38,000  Level Kansas City Center
05:55PM 38.2675 -94.3078 272° West 435 501 38,000  Level Kansas City Center
05:56PM 38.2719 -94.4506 283° West 430 495 38,000  Level Kansas City Center
05:57PM 38.3011 -94.6144 284° West 427 491 38,000  Level Kansas City Center
05:58PM 38.3300 -94.7628 286° West 427 491 38,000  Level Kansas City Center
05:59PM 38.3589 -94.8953 286° West 433 498 38,000  Level Kansas City Center
06:00PM 38.3917 -95.0386 286° West 433 498 38,000  Level Kansas City Center
06:01PM 38.4264 -95.1950 284° West 433 498 38,000  Level Kansas City Center
06:02PM 38.4567 -95.3464 286° West 433 498 38,000  Level Kansas City Center
06:03PM 38.4889 -95.4900 285° West 433 498 38,000  Level Kansas City Center
06:04PM 38.5169 -95.6206 285° West 433 498 38,000  Level Kansas City Center
06:05PM 38.5508 -95.7803 286° West 438 504 38,000  Level Kansas City Center
06:06PM 38.5825 -95.9242 285° West 433 498 38,000  Level Kansas City Center
06:07PM 38.6139 -96.0736 285° West 433 498 38,000  Level Kansas City Center
06:08PM 38.6414 -96.2044 281° West 433 498 38,000  Level Kansas City Center
06:09PM 38.6642 -96.3514 274° West 433 498 38,000  Level Kansas City Center
06:10PM 38.6719 -96.5164 276° West 428 493 38,000  Level Kansas City Center
06:11PM 38.6839 -96.6656 274° West 423 487 38,000  Level Kansas City Center
06:12PM 38.6917 -96.8122 273° West 423 487 38,000 -60 Level Kansas City Center
06:13PM 38.6972 -96.9614 274° West 423 487 37,900  Descending Kansas City Center
06:14PM 38.7044 -97.1078 274° West 423 487 38,000  Climbing Kansas City Center
06:15PM 38.7119 -97.2411 274° West 423 487 38,000  Level Kansas City Center
06:16PM 38.7189 -97.3878 274° West 423 487 38,000  Level Kansas City Center
06:17PM 38.7275 -97.5478 273° West 423 487 38,000  Level Kansas City Center
06:18PM 38.7339 -97.6972 273° West 423 487 38,000  Level Kansas City Center
06:19PM 38.7403 -97.8439 275° West 423 487 38,000  Level Kansas City Center
06:20PM 38.7492 -97.9772 273° West 423 487 38,000  Level Kansas City Center
06:21PM 38.7553 -98.1242 273° West 423 487 38,000  Level Kansas City Center
06:22PM 38.7611 -98.2681 273° West 423 487 38,000  Level Kansas City Center
06:23PM 38.7669 -98.4122 273° West 423 487 38,000  Level Kansas City Center
06:24PM 38.7728 -98.5536 273° West 418 481 38,000  Level Kansas City Center
06:25PM 38.7781 -98.6978 272° West 418 481 38,000  Level Kansas City Center
06:26PM 38.7814 -98.8417 274° West 412 474 38,000  Level Kansas City Center
06:27PM 38.7886 -98.9861 272° West 406 467 38,000  Level Kansas City Center
06:28PM 38.7933 -99.1303 272° West 406 467 38,000  Level Kansas City Center
06:30PM 38.7994 -99.3983 271° West 396 456 38,000  Level Denver Center
06:31PM 38.8017 -99.5342 273° West 406 467 38,000  Level Denver Center
06:32PM 38.8081 -99.6775 272° West 401 461 38,000  Level Denver Center
06:33PM 38.8114 -99.8025 271° West 401 461 38,000  Level Denver Center
06:34PM 38.8142 -99.9594 273° West 406 467 38,000  Level Denver Center
06:35PM 38.8200 -100.0975 272° West 406 467 38,000  Level Denver Center
06:36PM 38.8228 -100.2253 272° West 401 461 38,000  Level Denver Center
06:37PM 38.8258 -100.3611 271° West 401 461 38,000  Level Denver Center
06:38PM 38.8281 -100.5183 273° West 401 461 38,000  Level Denver Center
06:39PM 38.8331 -100.6564 271° West 401 461 38,000  Level Denver Center
06:40PM 38.8353 -100.7844 271° West 401 461 38,000  Level Denver Center
06:41PM 38.8364 -100.9364 271° West 401 461 38,000  Level Denver Center
06:42PM 38.8389 -101.0719 271° West 401 461 38,000 -180 Level Denver Center
06:43PM 38.8411 -101.2133 272° West 401 461 37,700 -660 Descending Denver Center
06:44PM 38.8447 -101.3383 271° West 401 461 36,700 -900 Descending Denver Center
06:45PM 38.8475 -101.4928 270° West 396 456 36,000 -360 Descending Denver Center
06:46PM 38.8472 -101.6342 272° West 402 463 36,000  Level Denver Center
06:47PM 38.8506 -101.7619 270° West 402 463 36,000  Level Denver Center
06:48PM 38.8500 -101.9033 269° West 402 463 36,000  Level Denver Center
06:49PM 38.8478 -102.0581 267° West 402 463 36,000 -60 Level Denver Center
06:50PM 38.8428 -102.2025 270° West 400 460 35,900 -300 Descending Denver Center
06:51PM 38.8433 -102.3303 269° West 406 467 35,400 -540 Descending Denver Center
06:52PM 38.8422 -102.4744 269° West 406 467 34,900 -540 Descending Denver Center
06:53PM 38.8392 -102.6292 269° West 406 467 34,400 -540 Descending Denver Center
06:54PM 38.8375 -102.7733 269° West 406 467 33,900 -480 Descending Denver Center
06:55PM 38.8356 -102.9014 267° West 406 467 33,500 -480 Descending Denver Center
06:56PM 38.8294 -103.0483 286° West 406 467 33,000 -540 Descending Denver Center
06:57PM 38.8608 -103.1881 308° West 406 467 32,500 -1,200 Descending Denver Center
06:58PM 38.9328 -103.3050 312° West 406 467 30,700 -2,220 Descending Denver Center
06:59PM 39.0131 -103.4189 316° Northwest 428 493 28,100 -2,340 Descending Denver Center
07:00PM 39.0928 -103.5197 313° West 417 480 26,100 -2,040 Descending Denver Center
07:01PM 39.1750 -103.6339 314° West 409 471 24,100 -1,980 Descending Denver Center
07:02PM 39.2461 -103.7303 314° West 390 449 22,200 -1,860 Descending Denver Center
07:03PM 39.3150 -103.8217 313° West 367 422 20,400 -1,560 Descending Denver Center
07:04PM 39.3817 -103.9158 313° West 362 417 19,100 -720 Descending Denver Center
07:05PM 39.4464 -104.0047 298° West 350 403 19,000 -60 Descending Denver Center
07:06PM 39.4881 -104.1056 240° Southwest 339 390 19,000 -900 Level Denver Center
07:07PM 39.4461 -104.2011 244° Southwest 289 333 17,300 -1,740 Descending Denver Center
07:08PM 39.4064 -104.3044 270° West 307 353 15,600 -1,680 Descending Denver Center
07:09PM 39.4064 -104.4147 290° West 307 353 14,000 -1,260 Descending Denver Center
07:10PM 39.4308 -104.5000 340° North 303 349 13,100 -780 Descending Denver Center
07:11PM 39.5064 -104.5356 340° North 282 325 12,500 -960 Descending Denver Center
07:12PM 39.5781 -104.5686 342° North 271 312 11,200 -1,680 Descending Denver Center
07:13PM 39.6514 -104.5989 340° North 259 298 9,200 -1,560 Descending Denver Center
07:14PM 39.7122 -104.6269 346° North 240 276 8,100 -1,260 Descending Denver Center
07:15PM 39.7833 -104.6500 360° North 173 199 6,300 -1,080 Descending Denver TRACON
07:16PM 39.8167 -104.6500 114° Southeast 147 169 5,600 -720 Descending Denver TRACON
07:24PM 39.7390 -104.4223 317° Northwest  Level FlightAware Approximate
07:25PM 39.8205 -104.5225 290° West  Level FlightAware Approximate
07:26PM 39.8583 -104.6608 290° West  Level Estimated